Time;durP1;ratioP1;P1;durP2;ratioP2;P2;SDS_P1;SDS_P2;PMS_P1;PMS_P2;Temp;Humidity;BMP_temperature;BMP_pressure;BME280_temperature;BME280_humidity;BME280_pressure;Samples;Min_cycle;Max_cycle;Signal;HPM_P1;HPM_P2
2022/11/22 00:00:24;;;;;;;2.37;2.15;;;;;;;1.29;100.00;98390.28;1725606;81;21051;-66
2022/11/22 00:02:51;;;;;;;2.10;2.00;;;;;;;1.25;100.00;98387.76;1758120;80;20930;-64
2022/11/22 00:05:17;;;;;;;2.10;1.90;;;;;;;1.25;100.00;98385.11;1724148;80;21031;-68
2022/11/22 00:07:44;;;;;;;1.60;1.50;;;;;;;1.26;100.00;98386.73;1765759;80;20988;-66
2022/11/22 00:10:11;;;;;;;1.98;1.87;;;;;;;1.28;100.00;98388.66;1753113;81;21134;-72
2022/11/22 00:12:39;;;;;;;1.85;1.70;;;;;;;1.31;100.00;98394.83;1745268;82;21049;-71
2022/11/22 00:15:08;;;;;;;2.80;2.00;;;;;;;1.33;100.00;98397.27;1746620;82;20997;-72
2022/11/22 00:17:35;;;;;;;2.83;2.62;;;;;;;1.35;100.00;98393.86;1760510;80;20980;-72
2022/11/22 00:20:03;;;;;;;2.83;2.62;;;;;;;1.38;100.00;98399.24;1760569;80;21056;-70
2022/11/22 00:22:31;;;;;;;2.27;2.00;;;;;;;1.40;100.00;98399.81;1741758;82;21131;-69
2022/11/22 00:24:59;;;;;;;2.75;2.55;;;;;;;1.41;100.00;98405.41;1746172;82;21052;-71
2022/11/22 00:27:25;;;;;;;2.50;2.30;;;;;;;1.35;100.00;98406.28;1746496;81;21009;-71
2022/11/22 00:29:52;;;;;;;1.62;1.52;;;;;;;1.30;100.00;98410.41;1746472;81;21028;-73
2022/11/22 00:32:19;;;;;;;1.72;1.62;;;;;;;1.27;100.00;98403.44;1742543;80;21124;-71
2022/11/22 00:34:46;;;;;;;2.12;2.02;;;;;;;1.20;100.00;98403.50;1764713;81;21139;-71
2022/11/22 00:37:12;;;;;;;2.37;2.17;;;;;;;1.16;100.00;98410.27;1762250;81;20943;-71
2022/11/22 00:39:39;;;;;;;1.92;1.82;;;;;;;1.15;100.00;98413.16;1733031;82;21007;-71
2022/11/22 00:42:06;;;;;;;2.25;2.10;;;;;;;1.14;100.00;98415.51;1736371;81;21051;-70
2022/11/22 00:44:32;;;;;;;2.30;2.10;;;;;;;1.12;100.00;98413.07;1756411;80;20966;-72
2022/11/22 00:46:59;;;;;;;2.80;2.60;;;;;;;1.08;100.00;98429.11;1773021;79;21075;-72
2022/11/22 00:49:25;;;;;;;3.40;3.10;;;;;;;1.04;100.00;98423.15;1772604;80;20907;-72
2022/11/22 00:51:52;;;;;;;2.30;2.15;;;;;;;1.02;100.00;98422.03;1733726;82;20975;-72
2022/11/22 00:54:18;;;;;;;3.12;2.75;;;;;;;1.03;100.00;98433.44;1733538;81;20971;-72
2022/11/22 00:56:45;;;;;;;3.65;3.35;;;;;;;1.01;100.00;98417.77;1702898;82;21006;-73
2022/11/22 00:59:11;;;;;;;4.92;3.55;;;;;;;1.07;100.00;98420.86;1768420;80;21130;-73
2022/11/22 01:01:37;;;;;;;2.92;2.72;;;;;;;1.11;100.00;98431.30;1736993;80;21038;-74
2022/11/22 01:04:04;;;;;;;3.33;3.12;;;;;;;1.06;100.00;98431.66;1733055;82;21001;-72
2022/11/22 01:06:31;;;;;;;3.72;3.40;;;;;;;0.96;100.00;98420.80;1734969;82;21606;-72
2022/11/22 01:08:57;;;;;;;4.75;4.35;;;;;;;0.86;100.00;98426.59;1698229;82;21930;-71
2022/11/22 01:11:25;;;;;;;5.30;4.80;;;;;;;0.82;100.00;98428.84;1708789;82;21007;-71
2022/11/22 01:13:52;;;;;;;3.60;3.25;;;;;;;0.82;100.00;98421.41;1728369;80;21111;-72
2022/11/22 01:16:19;;;;;;;3.08;2.83;;;;;;;0.79;100.00;98425.32;1714718;82;20960;-72
2022/11/22 01:18:46;;;;;;;4.28;3.95;;;;;;;0.79;100.00;98426.65;1723458;81;21095;-72
2022/11/22 01:21:14;;;;;;;3.00;2.80;;;;;;;0.75;100.00;98417.53;1710973;80;21087;-73
2022/11/22 01:23:41;;;;;;;3.67;3.20;;;;;;;0.73;100.00;98416.11;1734474;80;21191;-74
2022/11/22 01:26:08;;;;;;;3.90;3.60;;;;;;;0.68;100.00;98408.83;1704494;82;21008;-72
2022/11/22 01:28:35;;;;;;;3.47;3.08;;;;;;;0.64;100.00;98416.09;1720047;81;21037;-72
2022/11/22 01:31:02;;;;;;;2.75;2.55;;;;;;;0.61;100.00;98422.65;1738424;80;21062;-71
2022/11/22 01:33:28;;;;;;;3.20;3.00;;;;;;;0.57;100.00;98416.17;1726802;82;21099;-67
2022/11/22 01:35:57;;;;;;;3.20;3.00;;;;;;;0.56;100.00;98445.48;1736194;82;21568;-68
2022/11/22 01:38:24;;;;;;;3.25;2.95;;;;;;;0.55;100.00;98438.56;1744800;82;21033;-72
2022/11/22 01:40:52;;;;;;;3.72;3.42;;;;;;;0.56;100.00;98460.03;1718803;82;21046;-73
2022/11/22 01:43:26;;;;;;;4.10;3.70;;;;;;;0.54;100.00;98448.33;1733666;82;21023;-65
2022/11/22 01:45:57;;;;;;;3.30;3.10;;;;;;;0.55;100.00;98449.95;1725136;81;20935;-64
2022/11/22 01:49:01;;;;;;;3.10;2.90;;;;;;;0.54;100.00;98452.81;1752996;81;21504;-74
2022/11/22 01:51:37;;;;;;;3.92;3.60;;;;;;;0.50;100.00;98470.14;1730364;81;21567;-76
2022/11/22 01:54:15;;;;;;;3.52;3.22;;;;;;;0.49;100.00;98459.25;1717102;83;21082;-68
2022/11/22 01:56:43;;;;;;;3.45;3.15;;;;;;;0.48;100.00;98459.77;1716890;83;20983;-74
2022/11/22 01:59:13;;;;;;;3.77;3.47;;;;;;;0.49;100.00;98463.22;1723173;79;21157;-76
2022/11/22 02:01:40;;;;;;;4.33;3.87;;;;;;;0.44;100.00;98462.03;1784976;79;21308;-73
2022/11/22 02:04:09;;;;;;;4.97;4.47;;;;;;;0.40;100.00;98484.65;1785535;80;20975;-71
2022/11/22 02:07:02;;;;;;;4.22;3.92;;;;;;;0.33;100.00;98473.33;1766476;81;20962;-72
2022/11/22 02:09:29;;;;;;;4.60;4.30;;;;;;;0.27;100.00;98468.07;1733662;81;25556;-70
2022/11/22 02:11:58;;;;;;;4.40;4.00;;;;;;;0.23;100.00;98481.42;1738389;81;21500;-68
2022/11/22 02:14:27;;;;;;;3.95;3.37;;;;;;;0.22;100.00;98483.77;1780265;79;21468;-65
2022/11/22 02:16:55;;;;;;;5.53;3.95;;;;;;;0.20;100.00;98473.39;1787161;80;20987;-65
2022/11/22 02:19:44;;;;;;;4.05;3.75;;;;;;;0.18;100.00;98466.20;1774411;80;21049;-64
2022/11/22 02:22:42;;;;;;;4.62;4.17;;;;;;;0.16;100.00;98465.59;1704818;84;21062;-63
2022/11/22 02:25:17;;;;;;;4.72;4.33;;;;;;;0.09;100.00;98475.41;1744179;79;21178;-73
2022/11/22 02:27:44;;;;;;;5.33;4.87;;;;;;;0.05;100.00;98474.73;1737528;79;22171;-72
2022/11/22 02:30:10;;;;;;;4.70;4.30;;;;;;;0.04;100.00;98491.09;1786973;80;20996;-71
2022/11/22 02:32:37;;;;;;;4.97;4.15;;;;;;;0.05;100.00;98492.69;1733971;82;21384;-69
2022/11/22 02:35:18;;;;;;;5.00;4.60;;;;;;;0.06;100.00;98486.89;1762051;81;21087;-70
2022/11/22 02:37:44;;;;;;;4.93;4.53;;;;;;;0.07;100.00;98501.73;1732363;82;21042;-67
2022/11/22 02:40:14;;;;;;;4.25;3.95;;;;;;;0.07;100.00;98505.70;1763609;81;21221;-65
2022/11/22 02:42:43;;;;;;;4.20;3.87;;;;;;;0.07;100.00;98504.38;1748005;81;20998;-66
2022/11/22 02:45:10;;;;;;;4.12;3.83;;;;;;;0.09;100.00;98510.28;1755738;81;21589;-68
2022/11/22 02:47:37;;;;;;;5.40;4.90;;;;;;;0.09;100.00;98508.45;1732803;81;21049;-70
2022/11/22 02:50:06;;;;;;;4.10;3.80;;;;;;;0.05;100.00;98521.76;1741336;81;21082;-69
2022/11/22 02:52:33;;;;;;;3.87;3.58;;;;;;;0.05;100.00;98515.16;1748724;82;21955;-72
2022/11/22 02:55:00;;;;;;;4.53;4.12;;;;;;;0.02;100.00;98511.62;1743597;80;21630;-76
2022/11/22 02:57:26;;;;;;;5.00;4.60;;;;;;;-0.01;100.00;98520.80;1765279;80;20971;-76
2022/11/22 02:59:52;;;;;;;5.03;4.55;;;;;;;-0.04;100.00;98530.45;1750815;81;20940;-73
2022/11/22 03:02:19;;;;;;;4.72;4.33;;;;;;;-0.04;100.00;98532.28;1733306;81;21075;-72
2022/11/22 03:04:46;;;;;;;5.72;5.22;;;;;;;-0.06;100.00;98536.47;1735917;81;21064;-71
2022/11/22 03:07:12;;;;;;;5.37;4.95;;;;;;;-0.03;100.00;98525.98;1731016;82;21075;-70
2022/11/22 03:09:39;;;;;;;6.35;5.75;;;;;;;-0.02;100.00;98538.17;1718951;82;21532;-70
2022/11/22 03:12:07;;;;;;;5.95;5.30;;;;;;;0.02;100.00;98525.34;1743634;81;20972;-68
2022/11/22 03:14:34;;;;;;;4.75;4.35;;;;;;;-0.02;100.00;98536.85;1746565;81;21540;-69
2022/11/22 03:17:02;;;;;;;5.55;4.97;;;;;;;-0.08;100.00;98547.75;1742442;82;22170;-65
2022/11/22 03:19:30;;;;;;;6.72;5.58;;;;;;;-0.10;100.00;98541.88;1735770;82;21015;-74
2022/11/22 03:21:58;;;;;;;5.83;5.25;;;;;;;-0.15;100.00;98568.12;1733159;82;21014;-67
2022/11/22 03:24:24;;;;;;;4.92;4.42;;;;;;;-0.18;100.00;98550.53;1733577;82;21031;-65
2022/11/22 03:26:52;;;;;;;5.87;5.37;;;;;;;-0.23;100.00;98558.27;1755250;80;21102;-65
2022/11/22 03:29:19;;;;;;;5.47;4.97;;;;;;;-0.26;100.00;98543.66;1722957;82;21162;-65
2022/11/22 03:31:45;;;;;;;7.23;6.13;;;;;;;-0.28;100.00;98566.00;1732644;82;20948;-64
2022/11/22 03:34:13;;;;;;;6.60;6.00;;;;;;;-0.30;100.00;98558.81;1732580;82;20960;-63
2022/11/22 03:36:41;;;;;;;6.90;6.20;;;;;;;-0.31;100.00;98561.95;1732818;82;21048;-63
2022/11/22 03:39:08;;;;;;;6.60;5.90;;;;;;;-0.31;100.00;98568.56;1733094;82;21060;-66
2022/11/22 03:41:36;;;;;;;5.93;5.37;;;;;;;-0.32;100.00;98562.16;1724450;81;20998;-67
2022/11/22 03:44:03;;;;;;;6.30;5.75;;;;;;;-0.32;100.00;98574.05;1764460;79;21042;-65
2022/11/22 03:46:30;;;;;;;7.20;6.60;;;;;;;-0.35;100.00;98571.32;1764618;81;21049;-75
2022/11/22 03:48:56;;;;;;;6.65;6.03;;;;;;;-0.36;100.00;98574.16;1750660;81;21076;-75
2022/11/22 03:51:23;;;;;;;6.33;5.73;;;;;;;-0.37;100.00;98581.27;1723478;82;21574;-75
2022/11/22 03:53:50;;;;;;;13.83;9.93;;;;;;;-0.39;100.00;98584.64;1732763;82;21782;-66
2022/11/22 03:56:16;;;;;;;7.07;6.37;;;;;;;-0.42;100.00;98573.66;1757199;80;20986;-69
2022/11/22 03:58:42;;;;;;;6.80;6.20;;;;;;;-0.42;100.00;98592.14;1765892;80;22245;-68
2022/11/22 04:01:09;;;;;;;8.27;7.47;;;;;;;-0.41;100.00;98585.34;1739259;81;22266;-74
2022/11/22 04:03:37;;;;;;;7.87;7.07;;;;;;;-0.38;100.00;98596.80;1741993;82;21098;-75
2022/11/22 04:06:03;;;;;;;7.57;6.87;;;;;;;-0.37;100.00;98604.22;1730318;82;21060;-73
2022/11/22 04:08:31;;;;;;;6.53;5.93;;;;;;;-0.38;100.00;98598.13;1655617;82;21030;-82
2022/11/22 04:10:57;;;;;;;7.33;6.63;;;;;;;-0.38;100.00;98609.23;1699876;83;20975;-72
2022/11/22 04:15:05;;;;;;;9.03;6.90;;;;;;;-0.41;100.00;98613.08;1708498;84;21045;-70
2022/11/22 04:15:55;;;;;;;10.20;7.73;;;;;;;-0.41;100.00;98618.87;1704536;84;21023;-70
2022/11/22 04:18:22;;;;;;;8.80;7.30;;;;;;;-0.41;100.00;98625.47;1708459;84;21231;-75
2022/11/22 04:23:33;;;;;;;11.23;7.53;;;;;;;-0.38;100.00;98618.47;1708469;83;20954;-76
2022/11/22 04:26:01;;;;;;;9.40;8.40;;;;;;;-0.41;100.00;98626.28;1708045;82;21002;-74
2022/11/22 04:28:29;;;;;;;7.70;7.00;;;;;;;-0.45;100.00;98606.08;1707231;82;21039;-75
2022/11/22 04:33:40;;;;;;;12.10;8.87;;;;;;;-0.51;100.00;98598.97;1703810;84;21571;-77
2022/11/22 04:36:07;;;;;;;9.40;7.43;;;;;;;-0.52;100.00;98601.30;1695495;84;21578;-72
2022/11/22 04:38:35;;;;;;;6.83;6.23;;;;;;;-0.54;100.00;98617.06;1681005;84;21019;-85
2022/11/22 04:41:02;;;;;;;7.77;6.97;;;;;;;-0.55;100.00;98612.29;1724083;82;21028;-76
2022/11/22 04:46:15;;;;;;;7.63;6.90;;;;;;;-0.56;100.00;98638.89;1701205;84;21091;-67
2022/11/22 04:48:41;;;;;;;6.83;6.20;;;;;;;-0.55;100.00;98643.16;1677383;82;22141;-65
2022/11/22 04:53:56;;;;;;;6.80;6.10;;;;;;;-0.58;100.00;98635.66;1703987;84;21100;-65
2022/11/22 04:56:22;;;;;;;6.93;6.10;;;;;;;-0.61;100.00;98643.46;1703536;82;21890;-70
2022/11/22 04:58:50;;;;;;;9.37;8.37;;;;;;;-0.64;100.00;98642.56;1704959;82;21101;-70
2022/11/22 05:01:17;;;;;;;7.87;7.07;;;;;;;-0.63;100.00;98644.19;1734158;82;21058;-69
2022/11/22 05:03:45;;;;;;;7.00;6.30;;;;;;;-0.59;100.00;98647.23;1733851;82;21114;-70
2022/11/22 05:06:13;;;;;;;7.93;7.13;;;;;;;-0.57;100.00;98655.23;1713054;82;21615;-71
2022/11/22 05:08:41;;;;;;;6.50;5.90;;;;;;;-0.58;100.00;98652.31;1730485;80;21305;-71
2022/11/22 05:11:09;;;;;;;7.60;6.33;;;;;;;-0.57;100.00;98667.11;1771499;80;21471;-71
2022/11/22 05:13:39;;;;;;;9.80;7.40;;;;;;;-0.56;100.00;98679.81;1756982;81;21044;-71
2022/11/22 05:16:08;;;;;;;7.53;6.83;;;;;;;-0.58;100.00;98668.66;1756335;81;21013;-69
2022/11/22 05:18:35;;;;;;;7.53;6.83;;;;;;;-0.59;100.00;98665.71;1701466;84;21692;-71
2022/11/22 05:21:06;;;;;;;6.70;5.73;;;;;;;-0.62;100.00;98681.94;1715012;82;21148;-73
2022/11/22 05:23:53;;;;;;;6.33;5.53;;;;;;;-0.63;100.00;98668.45;1703136;84;21575;-74
2022/11/22 05:26:25;;;;;;;7.63;6.23;;;;;;;-0.64;100.00;98679.52;1702068;82;21604;-72
2022/11/22 05:28:51;;;;;;;7.13;6.43;;;;;;;-0.67;100.00;98685.72;1702236;82;21028;-74
2022/11/22 05:31:26;;;;;;;7.03;6.07;;;;;;;-0.69;100.00;98682.45;1716162;82;21118;-72
2022/11/22 05:33:51;;;;;;;6.47;5.87;;;;;;;-0.71;100.00;98685.80;1701043;84;21211;-71
2022/11/22 05:36:17;;;;;;;7.00;6.30;;;;;;;-0.73;100.00;98685.20;1701546;84;21560;-71
2022/11/22 05:38:44;;;;;;;7.50;6.10;;;;;;;-0.75;100.00;98697.27;1701399;82;20952;-71
2022/11/22 05:41:12;;;;;;;6.83;6.23;;;;;;;-0.75;100.00;98693.31;1755775;81;21037;-71
2022/11/22 05:43:39;;;;;;;7.43;6.73;;;;;;;-0.74;100.00;98704.69;1755450;80;21045;-73
2022/11/22 05:46:08;;;;;;;7.63;6.90;;;;;;;-0.75;100.00;98699.91;1755122;81;21156;-70
2022/11/22 05:48:36;;;;;;;8.80;7.90;;;;;;;-0.73;100.00;98705.00;1754871;81;20905;-74
2022/11/22 05:51:08;;;;;;;8.33;7.43;;;;;;;-0.71;100.00;98714.33;1756626;80;21013;-76
2022/11/22 05:53:37;;;;;;;8.10;6.90;;;;;;;-0.70;100.00;98720.42;1759956;80;21009;-74
2022/11/22 05:56:08;;;;;;;9.87;8.60;;;;;;;-0.71;100.00;98706.41;1755282;81;21041;-70
2022/11/22 05:58:35;;;;;;;9.10;7.80;;;;;;;-0.69;100.00;98711.50;1757470;81;21041;-70
2022/11/22 06:01:12;;;;;;;7.70;7.00;;;;;;;-0.69;100.00;98712.81;1782290;78;20954;-72
2022/11/22 06:03:39;;;;;;;7.40;6.60;;;;;;;-0.70;100.00;98712.50;1775570;80;20978;-72
2022/11/22 06:06:06;;;;;;;8.50;7.13;;;;;;;-0.69;100.00;98718.91;1745546;81;21466;-70
2022/11/22 06:08:34;;;;;;;8.60;7.10;;;;;;;-0.66;100.00;98713.72;1745340;81;21947;-74
2022/11/22 06:11:07;;;;;;;9.40;8.33;;;;;;;-0.65;100.00;98723.27;1740434;81;20964;-73
2022/11/22 06:13:39;;;;;;;8.47;6.90;;;;;;;-0.64;100.00;98716.98;1738993;82;21011;-70
2022/11/22 10:12:59;;;;;;;13.07;11.77;;;;;;;-0.52;100.00;98887.82;1851644;76;22606;-67
2022/11/22 10:15:55;;;;;;;14.87;11.13;;;;;;;-0.46;100.00;98889.67;1817892;78;21018;-70
2022/11/22 10:18:40;;;;;;;10.23;9.17;;;;;;;-0.32;100.00;98888.37;1817541;78;21425;-69
2022/11/22 10:21:13;;;;;;;12.53;10.80;;;;;;;-0.24;100.00;98891.64;1807993;78;20987;-71
2022/11/22 10:23:41;;;;;;;145.83;22.87;;;;;;;-0.15;100.00;98901.55;1814505;77;20953;-60
2022/11/22 10:26:20;;;;;;;12.73;10.00;;;;;;;-0.05;100.00;98900.66;1804612;78;21108;-61
2022/11/22 10:28:55;;;;;;;11.23;9.13;;;;;;;0.03;100.00;98903.09;1808581;77;21534;-63
2022/11/22 10:31:53;;;;;;;43.70;17.60;;;;;;;0.07;100.00;98904.31;1814738;77;21172;-70
2022/11/22 10:34:52;;;;;;;10.97;9.73;;;;;;;0.10;100.00;98910.50;1817606;78;20908;-69
2022/11/22 10:37:58;;;;;;;19.93;10.87;;;;;;;0.13;100.00;98897.41;1821675;77;21428;-71
2022/11/22 10:41:01;;;;;;;9.90;8.90;;;;;;;0.13;100.00;98904.84;1830255;77;20987;-66
2022/11/22 10:43:48;;;;;;;10.87;9.03;;;;;;;0.13;100.00;98895.58;1837089;77;21074;-67
2022/11/22 10:46:38;;;;;;;11.30;10.03;;;;;;;0.18;100.00;98899.76;1792749;79;21563;-68
2022/11/22 10:49:19;;;;;;;12.57;9.77;;;;;;;0.19;100.00;98901.90;1817336;77;20947;-66
2022/11/22 10:51:54;;;;;;;9.13;8.17;;;;;;;0.19;100.00;98894.75;1824992;77;20987;-69
2022/11/22 10:54:42;;;;;;;9.73;8.73;;;;;;;0.20;100.00;98900.86;1818902;77;21167;-68
2022/11/22 10:57:56;;;;;;;10.17;9.03;;;;;;;0.18;100.00;98893.15;1817808;77;20955;-67
2022/11/22 11:00:24;;;;;;;11.77;10.23;;;;;;;0.21;100.00;98901.98;1812744;77;21088;-63
2022/11/22 11:03:28;;;;;;;11.27;9.83;;;;;;;0.23;100.00;98891.22;1807131;78;21014;-69
2022/11/22 11:06:00;;;;;;;13.60;10.73;;;;;;;0.23;99.86;98892.03;1790625;78;21005;-72
2022/11/22 11:08:38;;;;;;;11.47;10.03;;;;;;;0.25;100.00;98893.13;1794173;78;21452;-71
2022/11/22 11:11:05;;;;;;;11.37;10.10;;;;;;;0.32;100.00;98896.60;1785586;78;21072;-73
2022/11/22 11:13:37;;;;;;;11.50;9.13;;;;;;;0.33;99.90;98891.13;1785863;80;21287;-67
2022/11/22 11:16:09;;;;;;;11.13;9.87;;;;;;;0.34;99.57;98890.59;1784452;80;21553;-67
2022/11/22 11:18:46;;;;;;;13.17;10.23;;;;;;;0.33;99.30;98896.41;1787397;78;20957;-66
2022/11/22 11:21:13;;;;;;;11.47;10.10;;;;;;;0.30;98.99;98892.83;1779389;78;21482;-65
2022/11/22 11:23:41;;;;;;;120.13;20.23;;;;;;;0.26;98.65;98898.22;1780865;79;21519;-67
2022/11/22 11:26:31;;;;;;;12.50;9.53;;;;;;;0.25;98.74;98901.88;1756746;80;21822;-71
2022/11/22 11:29:19;;;;;;;11.33;10.20;;;;;;;0.28;98.85;98898.03;1780914;79;20994;-65
2022/11/22 11:32:06;;;;;;;14.50;10.73;;;;;;;0.30;98.77;98894.66;1750187;80;20918;-66
2022/11/22 11:34:34;;;;;;;11.05;9.23;;;;;;;0.27;98.53;98899.86;1771234;80;21046;-67
2022/11/22 11:37:02;;;;;;;12.07;9.30;;;;;;;0.30;98.54;98898.63;1705797;79;22198;-76
2022/11/22 11:39:31;;;;;;;12.55;10.70;;;;;;;0.31;98.64;98906.87;1779496;79;22518;-68
2022/11/22 11:42:00;;;;;;;11.90;10.13;;;;;;;0.28;98.40;98907.28;1791227;79;21004;-70
2022/11/22 11:44:35;;;;;;;12.98;10.60;;;;;;;0.30;98.48;98909.20;1787945;79;20967;-71
2022/11/22 11:47:04;;;;;;;187.65;33.20;;;;;;;0.30;98.46;98911.84;1793027;79;21005;-67
2022/11/22 11:49:33;;;;;;;13.28;10.75;;;;;;;0.34;98.56;98918.35;1758657;80;21107;-66
2022/11/22 11:52:07;;;;;;;11.00;9.33;;;;;;;0.33;98.32;98926.00;1785301;80;21256;-66
2022/11/22 11:54:41;;;;;;;12.10;9.88;;;;;;;0.33;98.29;98918.89;1785299;80;20917;-70
2022/11/22 11:57:12;;;;;;;10.77;9.40;;;;;;;0.34;98.30;98921.00;1782543;79;21052;-67
2022/11/22 11:59:43;;;;;;;11.40;10.20;;;;;;;0.32;97.93;98915.12;1777896;79;21002;-67
2022/11/22 12:02:20;;;;;;;14.33;10.80;;;;;;;0.26;97.59;98919.37;1782930;80;20987;-65
2022/11/22 12:04:51;;;;;;;11.57;9.83;;;;;;;0.21;97.51;98931.07;1783940;79;21352;-67
2022/11/22 12:07:38;;;;;;;12.00;8.78;;;;;;;0.21;97.60;98934.22;1778557;79;21046;-66
2022/11/22 12:10:44;;;;;;;12.73;9.70;;;;;;;0.22;97.58;98931.38;1782498;80;21069;-64
2022/11/22 12:13:42;;;;;;;12.23;10.93;;;;;;;0.25;97.52;98923.54;1784785;80;20966;-70
2022/11/22 12:16:31;;;;;;;12.17;9.70;;;;;;;0.23;97.28;98926.41;1749578;80;21007;-69
2022/11/22 12:19:37;;;;;;;13.60;11.27;;;;;;;0.21;97.23;98933.71;1789965;78;21169;-68
2022/11/22 12:22:21;;;;;;;13.93;11.75;;;;;;;0.20;97.18;98931.26;1776906;80;21100;-68
2022/11/22 12:25:18;;;;;;;13.13;10.10;;;;;;;0.20;97.29;98937.88;1784178;80;21499;-68
2022/11/22 12:27:46;;;;;;;12.97;10.70;;;;;;;0.19;97.25;98933.09;1782278;80;22287;-68
2022/11/22 12:30:14;;;;;;;12.13;10.13;;;;;;;0.18;97.46;98932.80;1778697;80;21034;-67
2022/11/22 12:32:56;;;;;;;11.40;10.05;;;;;;;0.19;97.52;98936.27;1756428;80;21060;-67
2022/11/22 12:35:23;;;;;;;11.93;10.38;;;;;;;0.18;97.57;98946.02;1763696;79;21558;-67
2022/11/22 12:37:58;;;;;;;15.07;12.00;;;;;;;0.18;97.80;98953.95;1753101;81;21531;-66
2022/11/22 12:40:42;;;;;;;16.42;12.10;;;;;;;0.19;97.96;98962.70;1753871;81;20955;-68
2022/11/22 12:43:22;;;;;;;15.48;13.18;;;;;;;0.18;97.99;98965.03;1754492;81;25819;-70
2022/11/22 12:46:01;;;;;;;15.60;12.30;;;;;;;0.18;98.01;98963.71;1753880;81;21913;-68
2022/11/22 12:48:37;;;;;;;14.07;10.90;;;;;;;0.19;98.12;98969.31;1755977;79;21045;-68
2022/11/22 12:51:14;;;;;;;14.30;12.80;;;;;;;0.22;98.14;98975.01;1815339;79;20911;-67
2022/11/22 12:53:42;;;;;;;20.33;12.40;;;;;;;0.21;97.87;98968.08;1817626;78;21436;-67
2022/11/22 12:56:24;;;;;;;12.97;10.47;;;;;;;0.19;97.66;98962.17;1817441;79;20974;-67
2022/11/22 12:59:05;;;;;;;14.07;11.00;;;;;;;0.20;97.74;98966.45;1817619;77;22580;-67
2022/11/22 13:01:51;;;;;;;17.05;10.95;;;;;;;0.17;97.62;98964.72;1817392;79;20989;-67
2022/11/22 13:04:26;;;;;;;11.65;9.85;;;;;;;0.16;97.62;98968.38;1813388;79;21041;-67
2022/11/22 13:07:05;;;;;;;15.15;11.57;;;;;;;0.14;97.74;98969.09;1785447;79;21625;-66
2022/11/22 13:09:37;;;;;;;13.80;12.00;;;;;;;0.16;97.87;98978.95;1784646;80;21531;-67
2022/11/22 13:12:11;;;;;;;12.53;10.80;;;;;;;0.14;97.92;98973.06;1784939;80;20960;-70
2022/11/22 13:14:53;;;;;;;15.70;12.67;;;;;;;0.16;98.04;98982.41;1784604;80;20963;-68
2022/11/22 13:17:23;;;;;;;12.78;11.08;;;;;;;0.15;98.11;98977.31;1785117;80;20979;-68
2022/11/22 13:20:07;;;;;;;13.85;11.40;;;;;;;0.14;98.00;98980.49;1785720;78;20928;-67
2022/11/22 13:23:08;;;;;;;15.65;12.15;;;;;;;0.15;98.13;98991.85;1785453;80;21527;-67
2022/11/22 13:25:44;;;;;;;18.67;14.30;;;;;;;0.17;98.14;98987.20;1785451;80;21533;-68
2022/11/22 13:28:14;;;;;;;13.65;11.40;;;;;;;0.16;98.19;98992.98;1785525;80;20923;-67
2022/11/22 13:30:42;;;;;;;15.58;11.68;;;;;;;0.17;98.26;98987.20;1757229;80;20986;-68
2022/11/22 13:33:23;;;;;;;15.40;13.13;;;;;;;0.18;98.35;98992.29;1731475;80;21023;-69
2022/11/22 13:35:50;;;;;;;14.33;11.40;;;;;;;0.19;98.27;98984.64;1806751;79;21058;-68
2022/11/22 13:38:17;;;;;;;12.60;11.05;;;;;;;0.19;98.17;98977.25;1790329;79;21353;-69
2022/11/22 13:40:49;;;;;;;16.93;11.90;;;;;;;0.17;98.06;98989.33;1817412;79;21629;-68
2022/11/22 13:43:22;;;;;;;14.60;12.10;;;;;;;0.15;97.99;98979.45;1817266;79;21024;-69
2022/11/22 13:46:03;;;;;;;13.80;11.50;;;;;;;0.12;97.86;98981.19;1817348;79;20943;-67
2022/11/22 13:48:46;;;;;;;12.57;11.23;;;;;;;0.10;97.84;98983.20;1807097;79;21054;-69
2022/11/22 13:51:17;;;;;;;13.85;11.50;;;;;;;0.09;97.94;98990.84;1787580;79;21471;-68
2022/11/22 13:53:48;;;;;;;16.80;12.87;;;;;;;0.11;98.13;98990.62;1784397;80;21007;-67
2022/11/22 13:56:23;;;;;;;12.63;11.20;;;;;;;0.11;98.15;98994.09;1769976;79;21499;-69
2022/11/22 13:59:10;;;;;;;12.07;10.77;;;;;;;0.11;98.15;98997.23;1777245;79;21221;-69
2022/11/22 14:01:43;;;;;;;12.80;10.63;;;;;;;0.11;98.16;99000.70;1795072;79;20988;-68
2022/11/22 14:04:26;;;;;;;12.53;10.53;;;;;;;0.11;98.09;98994.09;1817582;79;21442;-69
2022/11/22 14:07:12;;;;;;;14.40;11.90;;;;;;;0.08;97.95;98987.08;1814921;79;20955;-68
2022/11/22 14:09:53;;;;;;;15.67;11.57;;;;;;;0.03;97.89;98985.03;1781132;79;20936;-68
2022/11/22 14:12:39;;;;;;;10.58;9.30;;;;;;;0.03;98.05;98994.28;1778076;80;21018;-72
2022/11/22 14:15:20;;;;;;;11.43;10.03;;;;;;;0.07;98.17;99003.44;1777045;80;21019;-71
2022/11/22 18:23:55;;;;;;;26.83;17.67;;;;;;;-0.64;100.00;99082.16;1860165;75;22569;-71
2022/11/22 18:26:21;;;;;;;26.43;18.60;;;;;;;-0.58;100.00;99080.58;1793990;77;21003;-69
2022/11/22 18:28:48;;;;;;;23.10;17.43;;;;;;;-0.47;100.00;99072.09;1825620;78;21122;-69
2022/11/22 18:31:14;;;;;;;24.00;18.47;;;;;;;-0.33;100.00;99075.62;1821764;77;20931;-68
2022/11/22 18:33:41;;;;;;;24.63;17.47;;;;;;;-0.23;100.00;99074.77;1839829;77;20936;-73
2022/11/22 18:36:15;;;;;;;23.47;16.40;;;;;;;-0.14;100.00;99073.59;1824521;78;21496;-71
2022/11/22 18:38:42;;;;;;;21.87;16.07;;;;;;;-0.05;100.00;99074.55;1831432;77;21061;-71
2022/11/22 18:41:09;;;;;;;27.50;18.60;;;;;;;-0.02;100.00;99070.71;1851397;77;21185;-69
2022/11/22 18:43:36;;;;;;;25.60;17.77;;;;;;;-0.02;100.00;99066.75;1835653;77;20983;-72
2022/11/22 18:46:03;;;;;;;22.33;18.10;;;;;;;-0.03;100.00;99072.53;1796539;78;21010;-70
2022/11/22 18:48:30;;;;;;;22.17;17.53;;;;;;;-0.03;100.00;99065.11;1821738;78;21003;-72
2022/11/22 18:51:06;;;;;;;23.37;16.33;;;;;;;0.00;100.00;99071.34;1821828;78;21023;-69
2022/11/22 18:53:30;;;;;;;19.25;15.23;;;;;;;0.08;100.00;99057.13;1813864;77;21138;-71
2022/11/22 18:56:09;;;;;;;22.87;18.13;;;;;;;0.11;100.00;99064.14;1809839;78;20944;-69
2022/11/22 18:58:36;;;;;;;23.50;18.17;;;;;;;0.11;100.00;99069.94;1825905;78;21008;-71
2022/11/22 19:01:17;;;;;;;24.40;18.00;;;;;;;0.11;100.00;99071.25;1805942;78;22189;-71
2022/11/22 19:03:44;;;;;;;24.40;16.47;;;;;;;0.10;100.00;99073.08;1823755;77;21043;-71
2022/11/22 19:06:15;;;;;;;21.20;16.70;;;;;;;0.09;100.00;99066.19;1821519;78;21026;-72
2022/11/22 19:08:42;;;;;;;20.83;15.13;;;;;;;0.12;100.00;99072.89;1822504;77;21023;-71
2022/11/22 19:11:09;;;;;;;22.77;17.07;;;;;;;0.13;100.00;99071.89;1844684;77;20948;-71
2022/11/22 19:13:41;;;;;;;20.10;15.43;;;;;;;0.14;100.00;99074.84;1797673;79;21000;-70
2022/11/22 19:16:11;;;;;;;23.55;17.05;;;;;;;0.18;100.00;99076.08;1784173;80;21043;-70
2022/11/22 19:18:41;;;;;;;19.10;15.30;;;;;;;0.19;100.00;99068.46;1785071;79;20995;-70
2022/11/22 19:21:11;;;;;;;20.90;15.03;;;;;;;0.19;100.00;99068.46;1803548;79;20996;-69
2022/11/22 19:23:37;;;;;;;19.17;16.63;;;;;;;0.19;100.00;99069.25;1804566;78;21031;-72
2022/11/22 19:26:05;;;;;;;18.25;14.63;;;;;;;0.22;100.00;99074.66;1822005;77;20984;-72
2022/11/22 19:28:32;;;;;;;19.13;15.63;;;;;;;0.24;100.00;99081.37;1822629;78;22187;-72
2022/11/22 19:31:06;;;;;;;24.52;17.75;;;;;;;0.25;100.00;99088.30;1799488;78;21232;-70
2022/11/22 19:33:35;;;;;;;17.87;13.90;;;;;;;0.29;100.00;99093.99;1837368;77;20992;-73
2022/11/22 19:36:04;;;;;;;18.23;14.73;;;;;;;0.32;100.00;99096.26;1810598;78;20967;-69
2022/11/22 19:38:31;;;;;;;23.92;17.37;;;;;;;0.33;100.00;99093.94;1798520;79;21639;-71
2022/11/22 19:40:58;;;;;;;31.07;21.52;;;;;;;0.32;100.00;99097.08;1798299;79;21074;-72
2022/11/22 19:43:24;;;;;;;16.57;14.00;;;;;;;0.34;100.00;99096.36;1801707;78;21159;-71
2022/11/22 19:45:51;;;;;;;16.05;12.95;;;;;;;0.33;100.00;99103.19;1813885;78;21011;-69
2022/11/22 19:48:17;;;;;;;18.67;14.40;;;;;;;0.31;100.00;99101.23;1829251;78;20905;-70
2022/11/22 19:50:45;;;;;;;14.73;12.73;;;;;;;0.33;100.00;99106.66;1811907;78;21376;-74
2022/11/22 19:53:11;;;;;;;20.50;16.70;;;;;;;0.34;100.00;99107.44;1815848;78;20967;-70
2022/11/22 19:55:39;;;;;;;17.85;13.38;;;;;;;0.33;100.00;99104.01;1817359;78;21006;-74
2022/11/22 19:58:06;;;;;;;17.85;13.05;;;;;;;0.33;100.00;99111.12;1830905;78;21039;-71
2022/11/22 20:00:34;;;;;;;23.07;15.65;;;;;;;0.28;100.00;99106.42;1830570;77;21015;-70
2022/11/22 20:03:01;;;;;;;16.62;13.32;;;;;;;0.26;100.00;99104.48;1812091;77;21606;-69